Terminal Aerodrome Forecast
Issued by NWS Sterling, VA

Current Version | Previous Version | Text Only | Print | Product List | Glossary Off
Versions: 1 2 3 4 5 6 7 8 9 10 11 12 13 14 15 16 17 18 19 20 21

000
FTUS41 KLWX 261400 AAA
TAFIAD
TAF AMD
KIAD 261451Z 2615/2718 29003KT P6SM SKC
     FM261700 16004KT P6SM FEW050
     FM270000 00000KT P6SM SKC
     FM271600 28006KT P6SM SCT050=

USA.gov is the U.S. government's official web portal to all federal, state and local government web resources and services.